createdAt,value
2024-03-26T00:00:40.388Z,22.86
2024-03-26T00:01:41.411Z,22.86
2024-03-26T00:02:40.379Z,22.85
2024-03-26T00:03:40.348Z,22.86
2024-03-26T00:04:40.339Z,22.86
2024-03-26T00:05:40.339Z,22.86
2024-03-26T00:06:40.340Z,22.86
2024-03-26T00:07:40.318Z,22.87
2024-03-26T00:08:40.320Z,22.87
2024-03-26T00:09:40.292Z,22.86
2024-03-26T00:10:40.349Z,22.86
2024-03-26T00:11:40.306Z,22.85
2024-03-26T00:12:40.291Z,22.86
2024-03-26T00:13:40.328Z,22.85
2024-03-26T00:14:40.352Z,22.85
2024-03-26T00:15:40.379Z,22.85
2024-03-26T00:16:40.404Z,22.84
2024-03-26T00:17:40.465Z,22.85
2024-03-26T00:18:40.476Z,22.84
2024-03-26T00:19:40.514Z,22.84
2024-03-26T00:20:40.567Z,22.84
2024-03-26T00:21:40.579Z,22.83
2024-03-26T00:22:40.603Z,22.84
2024-03-26T00:23:40.702Z,22.83
2024-03-26T00:24:40.668Z,22.83
2024-03-26T00:25:40.710Z,22.83
2024-03-26T00:26:40.750Z,22.83
2024-03-26T00:27:40.768Z,22.83
2024-03-26T00:29:40.864Z,22.83
2024-03-26T00:30:40.871Z,22.82
2024-03-26T00:31:40.902Z,22.82
2024-03-26T00:32:40.944Z,22.82
2024-03-26T00:33:40.964Z,22.82
2024-03-26T00:34:40.988Z,22.82
2024-03-26T00:35:41.058Z,22.81
2024-03-26T00:36:41.074Z,22.82
2024-03-26T00:37:41.095Z,22.82
2024-03-26T00:38:41.129Z,22.82
2024-03-26T00:39:41.154Z,22.82
2024-03-26T00:40:41.188Z,22.82
2024-03-26T00:41:41.240Z,22.82
2024-03-26T00:42:41.256Z,22.81
2024-03-26T00:43:41.295Z,22.81
2024-03-26T00:44:41.329Z,22.81
2024-03-26T00:45:41.355Z,22.80
2024-03-26T00:46:41.402Z,22.80
2024-03-26T00:47:41.429Z,22.81
2024-03-26T00:48:41.443Z,22.81
2024-03-26T00:49:41.485Z,22.80
2024-03-26T00:50:41.524Z,22.80
2024-03-26T00:51:41.548Z,22.80
2024-03-26T00:52:41.584Z,22.81
2024-03-26T00:53:41.633Z,22.80
2024-03-26T00:54:41.666Z,22.80
2024-03-26T00:55:41.720Z,22.80
2024-03-26T00:56:41.767Z,22.80
2024-03-26T00:57:41.781Z,22.81
2024-03-26T00:58:41.784Z,22.79
2024-03-26T00:59:41.776Z,22.79
2024-03-26T01:00:41.748Z,22.79
2024-03-26T01:01:41.755Z,22.78
2024-03-26T01:02:41.751Z,22.79
2024-03-26T01:03:41.744Z,22.79
2024-03-26T01:04:41.725Z,22.79
2024-03-26T01:05:41.736Z,22.78
2024-03-26T01:06:41.707Z,22.78
2024-03-26T01:07:41.698Z,22.78
2024-03-26T01:08:41.693Z,22.77
2024-03-26T01:09:41.665Z,22.76
2024-03-26T01:10:41.714Z,22.77
2024-03-26T01:11:41.746Z,22.78
2024-03-26T01:12:41.778Z,22.78
2024-03-26T01:13:41.811Z,22.77
2024-03-26T01:14:41.861Z,22.77
2024-03-26T01:15:41.836Z,22.76
2024-03-26T01:16:41.840Z,22.76
2024-03-26T01:17:41.810Z,22.76
2024-03-26T01:18:41.800Z,22.77
2024-03-26T01:19:41.784Z,22.76
2024-03-26T01:20:41.765Z,22.76
2024-03-26T01:21:41.765Z,22.76
2024-03-26T01:22:41.746Z,22.75
2024-03-26T01:23:41.728Z,22.75
2024-03-26T01:24:41.719Z,22.75
2024-03-26T01:25:41.706Z,22.75
2024-03-26T01:26:41.826Z,22.75
2024-03-26T01:27:41.775Z,22.74
2024-03-26T01:28:41.833Z,22.75
2024-03-26T01:29:41.858Z,22.75
2024-03-26T01:30:41.879Z,22.74
2024-03-26T01:31:41.918Z,22.75
2024-03-26T01:32:41.963Z,22.74
2024-03-26T01:33:41.995Z,22.75
2024-03-26T01:34:42.018Z,22.75
2024-03-26T01:35:42.075Z,22.74
2024-03-26T01:36:42.092Z,22.74
2024-03-26T01:37:42.125Z,22.74
2024-03-26T01:38:42.168Z,22.74
2024-03-26T01:39:42.197Z,22.74
2024-03-26T01:40:42.228Z,22.75
2024-03-26T01:41:42.297Z,22.74
2024-03-26T01:42:42.303Z,22.73
2024-03-26T01:43:42.333Z,22.74
2024-03-26T01:44:42.380Z,22.73
2024-03-26T01:45:42.400Z,22.73
2024-03-26T01:46:42.462Z,22.73
2024-03-26T01:47:42.472Z,22.73
2024-03-26T01:48:42.497Z,22.74
2024-03-26T01:49:42.533Z,22.73
2024-03-26T01:50:42.619Z,22.72
2024-03-26T01:51:42.618Z,22.73
2024-03-26T01:52:42.657Z,22.72
2024-03-26T01:53:42.687Z,22.72
2024-03-26T01:54:42.712Z,22.72
2024-03-26T01:55:42.759Z,22.73
2024-03-26T01:56:42.801Z,22.72
2024-03-26T01:57:42.839Z,22.72
2024-03-26T01:58:42.867Z,22.72
2024-03-26T01:59:42.911Z,22.72
2024-03-26T02:00:42.930Z,22.72
2024-03-26T02:01:42.974Z,22.71
2024-03-26T02:02:43.034Z,22.72
2024-03-26T02:03:42.993Z,22.71
2024-03-26T02:04:42.978Z,22.71
2024-03-26T02:05:42.976Z,22.71
2024-03-26T02:06:42.948Z,22.71
2024-03-26T02:07:42.929Z,22.71
2024-03-26T02:08:42.967Z,22.71
2024-03-26T02:09:42.924Z,22.71
2024-03-26T02:10:42.911Z,22.70
2024-03-26T02:11:42.876Z,22.70
2024-03-26T02:12:42.875Z,22.70
2024-03-26T02:13:42.876Z,22.70
2024-03-26T02:14:42.890Z,22.70
2024-03-26T02:15:42.917Z,22.70
2024-03-26T02:16:42.961Z,22.70
2024-03-26T02:17:43.017Z,22.69
2024-03-26T02:18:43.055Z,22.70
2024-03-26T02:19:43.097Z,22.69
2024-03-26T02:20:43.804Z,22.69
2024-03-26T02:21:43.153Z,22.69
2024-03-26T02:22:43.184Z,22.68
2024-03-26T02:23:43.260Z,22.69
2024-03-26T02:24:43.287Z,22.69
2024-03-26T02:25:43.316Z,22.68
2024-03-26T02:26:43.355Z,22.69
2024-03-26T02:27:43.343Z,22.67
2024-03-26T02:28:43.314Z,22.69
2024-03-26T02:29:43.317Z,22.69
2024-03-26T02:30:43.299Z,22.68
2024-03-26T02:31:43.273Z,22.68
2024-03-26T02:32:43.269Z,22.68
2024-03-26T02:33:43.253Z,22.68
2024-03-26T02:34:43.219Z,22.68
2024-03-26T02:35:43.227Z,22.68
2024-03-26T02:36:43.188Z,22.68
2024-03-26T02:37:43.185Z,22.67
2024-03-26T02:38:43.170Z,22.67
2024-03-26T02:39:43.159Z,22.66
2024-03-26T02:40:43.211Z,22.67
2024-03-26T02:41:43.250Z,22.66
2024-03-26T02:42:43.280Z,22.68
2024-03-26T02:43:43.310Z,22.66
2024-03-26T02:44:43.389Z,22.66
2024-03-26T02:45:43.391Z,22.66
2024-03-26T02:46:43.455Z,22.66
2024-03-26T02:47:43.473Z,22.66
2024-03-26T02:48:43.520Z,22.66
2024-03-26T02:49:43.542Z,22.66
2024-03-26T02:50:43.602Z,22.66
2024-03-26T02:51:43.646Z,22.66
2024-03-26T02:52:43.657Z,22.65
2024-03-26T02:53:43.692Z,22.65
2024-03-26T02:54:43.719Z,22.65
2024-03-26T02:55:43.757Z,22.65
2024-03-26T02:56:43.826Z,22.65
2024-03-26T02:57:43.817Z,22.65
2024-03-26T02:58:43.857Z,22.65
2024-03-26T02:59:43.971Z,22.64
2024-03-26T03:00:43.940Z,22.64
2024-03-26T03:01:43.978Z,22.65
2024-03-26T03:02:46.068Z,22.65
2024-03-26T03:03:44.001Z,22.64
2024-03-26T03:04:43.999Z,22.63
2024-03-26T03:05:43.993Z,22.63
2024-03-26T03:06:43.952Z,22.63
2024-03-26T03:07:43.933Z,22.63
2024-03-26T03:08:43.925Z,22.64
2024-03-26T03:09:43.928Z,22.64
2024-03-26T03:10:43.905Z,22.63
2024-03-26T03:11:43.901Z,22.62
2024-03-26T03:12:43.873Z,22.62
2024-03-26T03:13:43.855Z,22.62
2024-03-26T03:14:43.853Z,22.62
2024-03-26T03:15:43.837Z,22.62
2024-03-26T03:16:43.901Z,22.62
2024-03-26T03:17:43.817Z,22.62
2024-03-26T03:18:43.808Z,22.62
2024-03-26T03:19:43.792Z,22.62
2024-03-26T03:20:43.806Z,22.62
2024-03-26T03:21:43.770Z,22.62
2024-03-26T03:22:43.743Z,22.62
2024-03-26T03:23:43.778Z,22.61
2024-03-26T03:24:43.726Z,22.63
2024-03-26T03:25:43.698Z,22.63
2024-03-26T03:26:43.702Z,22.62
2024-03-26T03:27:43.683Z,22.61
2024-03-26T03:28:43.674Z,22.61
2024-03-26T03:29:43.672Z,22.62
2024-03-26T03:30:43.647Z,22.62
2024-03-26T03:31:43.642Z,22.62
2024-03-26T03:32:43.641Z,22.62
2024-03-26T03:33:43.613Z,22.61
2024-03-26T03:34:43.612Z,22.61
2024-03-26T03:35:43.614Z,22.61
2024-03-26T03:36:43.596Z,22.60
2024-03-26T03:37:43.587Z,22.60
2024-03-26T03:38:43.611Z,22.60
2024-03-26T03:39:43.540Z,22.60
2024-03-26T03:40:43.533Z,22.60
2024-03-26T03:41:43.534Z,22.60
2024-03-26T03:42:43.496Z,22.60
2024-03-26T03:43:43.482Z,22.60
2024-03-26T03:44:43.490Z,22.60
2024-03-26T03:45:43.452Z,22.61
2024-03-26T03:46:43.453Z,22.60
2024-03-26T03:47:43.434Z,22.60
2024-03-26T03:48:43.478Z,22.59
2024-03-26T03:49:43.518Z,22.60
2024-03-26T03:50:43.581Z,22.59
2024-03-26T03:51:43.619Z,22.59
2024-03-26T03:52:43.642Z,22.59
2024-03-26T03:53:43.694Z,22.59
2024-03-26T03:54:43.730Z,22.59
2024-03-26T03:55:43.776Z,22.59
2024-03-26T03:56:43.774Z,22.58
2024-03-26T03:57:43.766Z,22.58
2024-03-26T03:58:43.733Z,22.58
2024-03-26T03:59:43.743Z,22.59
2024-03-26T04:00:43.717Z,22.59
2024-03-26T04:01:43.715Z,22.59
2024-03-26T04:02:43.713Z,22.59
2024-03-26T04:03:43.688Z,22.58
2024-03-26T04:04:43.679Z,22.58
2024-03-26T04:05:43.666Z,22.58
2024-03-26T04:06:43.704Z,22.58
2024-03-26T04:07:43.739Z,22.58
2024-03-26T04:08:43.770Z,22.58
2024-03-26T04:09:43.810Z,22.58
2024-03-26T04:10:43.854Z,22.58
2024-03-26T04:11:43.890Z,22.58
2024-03-26T04:12:43.938Z,22.58
2024-03-26T04:13:43.968Z,22.58
2024-03-26T04:14:44.013Z,22.58
2024-03-26T04:15:44.054Z,22.57
2024-03-26T04:16:44.095Z,22.57
2024-03-26T04:17:44.136Z,22.57
2024-03-26T04:18:44.177Z,22.57
2024-03-26T04:19:44.189Z,22.57
2024-03-26T04:20:44.220Z,22.57
2024-03-26T04:21:44.261Z,22.57
2024-03-26T04:22:44.294Z,22.57
2024-03-26T04:23:44.329Z,22.56
2024-03-26T04:24:44.402Z,22.56
2024-03-26T04:25:44.415Z,22.56
2024-03-26T04:26:44.463Z,22.57
2024-03-26T04:27:44.486Z,22.57
2024-03-26T04:28:44.537Z,22.56
2024-03-26T04:29:51.770Z,22.54
2024-03-26T04:30:51.737Z,22.54
2024-03-26T04:31:59.023Z,22.53
2024-03-26T04:32:59.041Z,22.54
2024-03-26T04:33:59.040Z,22.54
2024-03-26T04:34:59.063Z,22.55
2024-03-26T04:35:59.082Z,22.55
2024-03-26T04:36:59.099Z,22.55
2024-03-26T04:37:59.140Z,22.55
2024-03-26T04:38:59.135Z,22.55
2024-03-26T04:39:59.168Z,22.56
2024-03-26T04:40:59.195Z,22.55
2024-03-26T04:41:59.211Z,22.56
2024-03-26T04:42:59.239Z,22.55
2024-03-26T04:43:59.253Z,22.55
2024-03-26T04:44:59.283Z,22.55
2024-03-26T04:45:59.297Z,22.55
2024-03-26T04:46:59.312Z,22.55
2024-03-26T04:47:59.345Z,22.54
2024-03-26T04:48:59.358Z,22.54
2024-03-26T04:49:59.380Z,22.55
2024-03-26T04:50:59.390Z,22.55
2024-03-26T04:51:59.457Z,22.55
2024-03-26T04:52:59.451Z,22.56
2024-03-26T04:53:59.473Z,22.55
2024-03-26T04:54:59.486Z,22.55
2024-03-26T04:55:59.506Z,22.55
2024-03-26T04:56:59.584Z,22.55
2024-03-26T04:57:59.552Z,22.55
2024-03-26T04:58:59.558Z,22.54
2024-03-26T04:59:59.619Z,22.54
2024-03-26T05:00:59.690Z,22.54
2024-03-26T05:01:59.738Z,22.53
2024-03-26T05:02:59.813Z,22.53
2024-03-26T05:03:59.858Z,22.53
2024-03-26T05:04:59.918Z,22.53
2024-03-26T05:05:59.992Z,22.53
2024-03-26T05:07:00.087Z,22.53
2024-03-26T05:08:00.122Z,22.53
2024-03-26T05:09:00.175Z,22.54
2024-03-26T05:10:00.238Z,22.54
2024-03-26T05:11:00.305Z,22.53
2024-03-26T05:12:00.376Z,22.53
2024-03-26T05:13:00.421Z,22.53
2024-03-26T05:14:00.484Z,22.52
2024-03-26T05:15:00.559Z,22.53
2024-03-26T05:16:02.288Z,22.52
2024-03-26T05:17:00.626Z,22.52
2024-03-26T05:18:00.653Z,22.52
2024-03-26T05:19:00.672Z,22.52
2024-03-26T05:20:00.673Z,22.52
2024-03-26T05:21:00.697Z,22.52
2024-03-26T05:22:00.733Z,22.52
2024-03-26T05:23:00.756Z,22.52
2024-03-26T05:24:00.848Z,22.51
2024-03-26T05:25:00.775Z,22.51
2024-03-26T05:26:00.808Z,22.52
2024-03-26T05:27:00.778Z,22.52
2024-03-26T05:28:00.798Z,22.52
2024-03-26T05:29:00.839Z,22.51
2024-03-26T05:30:00.849Z,22.51
2024-03-26T05:31:00.832Z,22.50
2024-03-26T05:32:00.864Z,22.51
2024-03-26T05:33:00.859Z,22.51
2024-03-26T05:34:00.890Z,22.51
2024-03-26T05:35:00.900Z,22.51
2024-03-26T05:36:00.936Z,22.51
2024-03-26T05:37:00.982Z,22.50
2024-03-26T05:38:00.939Z,22.50
2024-03-26T05:39:00.941Z,22.50
2024-03-26T05:40:00.970Z,22.51
2024-03-26T05:41:00.986Z,22.51
2024-03-26T05:42:01.016Z,22.50
2024-03-26T05:43:01.014Z,22.51
2024-03-26T05:44:01.039Z,22.51
2024-03-26T05:45:01.066Z,22.51
2024-03-26T05:46:01.054Z,22.51
2024-03-26T05:47:01.078Z,22.51
2024-03-26T05:48:01.627Z,22.51
2024-03-26T05:49:01.090Z,22.51
2024-03-26T05:50:01.132Z,22.51
2024-03-26T05:51:01.139Z,22.51
2024-03-26T05:52:01.183Z,22.51
2024-03-26T05:53:01.170Z,22.52
2024-03-26T05:54:01.193Z,22.51
2024-03-26T05:55:01.202Z,22.50
2024-03-26T05:56:01.199Z,22.50
2024-03-26T05:57:01.239Z,22.50
2024-03-26T05:58:01.236Z,22.51
2024-03-26T05:59:01.264Z,22.50
2024-03-26T06:00:01.284Z,22.51
2024-03-26T06:01:01.293Z,22.50
2024-03-26T06:02:01.295Z,22.51
2024-03-26T06:03:01.313Z,22.51
2024-03-26T06:04:02.779Z,22.51
2024-03-26T06:05:01.375Z,22.51
2024-03-26T06:06:01.399Z,22.50
2024-03-26T06:07:01.396Z,22.50
2024-03-26T06:08:01.393Z,22.50
2024-03-26T06:09:01.410Z,22.50
2024-03-26T06:10:01.430Z,22.50
2024-03-26T06:11:01.471Z,22.50
2024-03-26T06:12:01.529Z,22.51
2024-03-26T06:13:04.104Z,22.51
2024-03-26T06:14:01.543Z,22.51
2024-03-26T06:15:01.526Z,22.51
2024-03-26T06:16:01.557Z,22.52
2024-03-26T06:17:01.541Z,22.51
2024-03-26T06:19:01.584Z,22.50
2024-03-26T06:20:01.779Z,22.52
2024-03-26T06:21:01.660Z,22.51
2024-03-26T06:22:01.653Z,22.52
2024-03-26T06:23:01.674Z,22.52
2024-03-26T06:24:01.682Z,22.52
2024-03-26T06:25:01.747Z,22.52
2024-03-26T06:26:01.714Z,22.52
2024-03-26T06:27:01.762Z,22.52
2024-03-26T06:28:01.826Z,22.52
2024-03-26T06:29:01.788Z,22.52
2024-03-26T06:30:01.831Z,22.52
2024-03-26T06:31:01.824Z,22.52
2024-03-26T06:32:01.847Z,22.53
2024-03-26T06:33:01.859Z,22.52
2024-03-26T06:34:01.868Z,22.53
2024-03-26T06:35:01.929Z,22.53
2024-03-26T06:36:01.933Z,22.53
2024-03-26T06:37:01.951Z,22.54
2024-03-26T06:38:01.963Z,22.54
2024-03-26T06:39:02.020Z,22.54
2024-03-26T06:40:02.020Z,22.55
2024-03-26T06:41:02.029Z,22.54
2024-03-26T06:42:02.063Z,22.54
2024-03-26T06:43:02.058Z,22.55
2024-03-26T06:44:02.081Z,22.55
2024-03-26T06:45:02.085Z,22.54
2024-03-26T06:46:02.112Z,22.55
2024-03-26T06:47:02.124Z,22.55
2024-03-26T06:48:02.144Z,22.55
2024-03-26T06:49:02.161Z,22.55
2024-03-26T06:50:02.199Z,22.56
2024-03-26T06:51:02.204Z,22.56
2024-03-26T06:52:02.231Z,22.56
2024-03-26T06:53:02.236Z,22.56
2024-03-26T06:54:02.304Z,22.56
2024-03-26T06:55:02.397Z,22.57
2024-03-26T06:56:02.453Z,22.56
2024-03-26T06:57:02.563Z,22.57
2024-03-26T06:58:02.610Z,22.56
2024-03-26T06:59:02.653Z,22.57
2024-03-26T07:00:02.723Z,22.56
2024-03-26T07:01:02.785Z,22.58
2024-03-26T07:02:02.858Z,22.58
2024-03-26T07:03:02.906Z,22.58
2024-03-26T07:04:02.993Z,22.58
2024-03-26T07:05:03.047Z,22.58
2024-03-26T07:06:03.095Z,22.58
2024-03-26T07:07:03.116Z,22.58
2024-03-26T07:08:03.124Z,22.58
2024-03-26T07:09:03.160Z,22.58
2024-03-26T07:10:03.137Z,22.58
2024-03-26T07:11:03.142Z,22.59
2024-03-26T07:12:03.186Z,22.59
2024-03-26T07:13:03.184Z,22.60
2024-03-26T07:14:03.188Z,22.60
2024-03-26T07:15:03.210Z,22.61
2024-03-26T07:16:03.217Z,22.62
2024-03-26T07:17:03.235Z,22.61
2024-03-26T07:18:03.248Z,22.62
2024-03-26T07:19:03.258Z,22.62
2024-03-26T07:20:03.292Z,22.63
2024-03-26T07:21:03.286Z,22.63
2024-03-26T07:22:03.324Z,22.64
2024-03-26T07:23:03.314Z,22.65
2024-03-26T07:24:03.345Z,22.65
2024-03-26T07:25:03.342Z,22.65
2024-03-26T07:26:03.355Z,22.66
2024-03-26T07:27:03.374Z,22.67
2024-03-26T07:28:03.380Z,22.67
2024-03-26T07:29:03.388Z,22.68
2024-03-26T07:30:03.425Z,22.68
2024-03-26T07:31:03.426Z,22.68
2024-03-26T07:32:03.437Z,22.69
2024-03-26T07:33:03.453Z,22.69
2024-03-26T07:34:03.458Z,22.69
2024-03-26T07:35:03.468Z,22.69
2024-03-26T07:36:03.479Z,22.70
2024-03-26T07:37:03.512Z,22.71
2024-03-26T07:38:03.533Z,22.71
2024-03-26T07:39:03.556Z,22.71
2024-03-26T07:40:03.582Z,22.72
2024-03-26T07:41:03.570Z,22.72
2024-03-26T07:42:03.660Z,22.73
2024-03-26T07:43:06.469Z,22.74
2024-03-26T07:44:04.677Z,22.73
2024-03-26T07:45:03.784Z,22.74
2024-03-26T07:46:03.728Z,22.74
2024-03-26T07:47:03.687Z,22.75
2024-03-26T07:48:03.668Z,22.75
2024-03-26T07:49:03.689Z,22.76
2024-03-26T07:50:03.736Z,22.76
2024-03-26T07:51:03.720Z,22.76
2024-03-26T07:52:03.762Z,22.77
2024-03-26T07:53:03.788Z,22.77
2024-03-26T07:54:03.866Z,22.78
2024-03-26T07:55:03.771Z,22.77
2024-03-26T07:56:03.833Z,22.77
2024-03-26T07:57:03.936Z,22.78
2024-03-26T07:58:03.958Z,22.78
2024-03-26T07:59:03.826Z,22.79
2024-03-26T08:00:03.848Z,22.80
2024-03-26T08:01:03.974Z,22.80
2024-03-26T08:02:03.874Z,22.81
2024-03-26T08:03:03.959Z,22.82
2024-03-26T08:04:03.931Z,22.83
2024-03-26T08:05:03.885Z,22.84
2024-03-26T08:06:03.973Z,22.83
2024-03-26T08:07:03.979Z,22.84
2024-03-26T08:08:04.022Z,22.85
2024-03-26T08:09:04.113Z,22.86
2024-03-26T08:10:04.180Z,22.87
2024-03-26T08:11:04.186Z,22.87
2024-03-26T08:12:04.292Z,22.87
2024-03-26T08:13:04.351Z,22.88
2024-03-26T08:14:04.316Z,22.87
2024-03-26T08:15:04.470Z,22.88
2024-03-26T08:16:04.467Z,22.88
2024-03-26T08:17:04.571Z,22.87
2024-03-26T08:18:04.623Z,22.88
2024-03-26T08:19:04.583Z,22.89
2024-03-26T08:20:04.626Z,22.88
2024-03-26T08:21:04.739Z,22.88
2024-03-26T08:22:04.750Z,22.89
2024-03-26T08:23:04.762Z,22.89
2024-03-26T08:24:04.829Z,22.89
2024-03-26T08:25:04.866Z,22.89
2024-03-26T08:26:04.921Z,22.89
2024-03-26T08:27:04.971Z,22.90
2024-03-26T08:28:04.986Z,22.90
2024-03-26T08:29:05.087Z,22.90
2024-03-26T08:30:07.901Z,22.91
2024-03-26T08:31:05.086Z,22.91
2024-03-26T08:32:05.114Z,22.91
2024-03-26T08:33:05.166Z,22.91
2024-03-26T08:34:05.165Z,22.92
2024-03-26T08:35:05.159Z,22.93
2024-03-26T08:36:05.288Z,22.92
2024-03-26T08:37:05.230Z,22.93
2024-03-26T08:38:05.207Z,22.94
2024-03-26T08:39:05.248Z,22.95
2024-03-26T08:40:05.234Z,22.97
2024-03-26T08:41:05.239Z,22.97
2024-03-26T08:42:05.263Z,22.96
2024-03-26T08:43:05.268Z,22.96
2024-03-26T08:44:05.276Z,22.97
2024-03-26T08:45:06.972Z,22.97
2024-03-26T08:46:05.291Z,22.98
2024-03-26T08:47:05.326Z,22.99
2024-03-26T08:48:05.327Z,23.00
2024-03-26T08:49:05.341Z,23.00
2024-03-26T08:50:05.353Z,23.01
2024-03-26T08:51:05.357Z,23.02
2024-03-26T08:52:05.373Z,23.02
2024-03-26T08:53:05.389Z,23.02
2024-03-26T08:54:05.393Z,23.03
2024-03-26T08:55:05.425Z,23.03
2024-03-26T08:56:15.136Z,23.05
2024-03-26T08:57:06.453Z,23.07
2024-03-26T08:58:05.463Z,23.08
2024-03-26T08:59:05.470Z,23.10
2024-03-26T09:00:05.481Z,23.11
2024-03-26T09:01:05.507Z,23.12
2024-03-26T09:02:05.545Z,23.14
2024-03-26T09:03:05.597Z,23.16
2024-03-26T09:04:05.550Z,23.18
2024-03-26T09:05:05.564Z,23.20
2024-03-26T09:06:05.588Z,23.21
2024-03-26T09:07:05.596Z,23.23
2024-03-26T09:08:05.585Z,23.23
2024-03-26T09:09:05.610Z,23.25
2024-03-26T09:10:05.624Z,23.27
2024-03-26T09:11:05.628Z,23.28
2024-03-26T09:12:05.628Z,23.29
2024-03-26T09:13:05.643Z,23.30
2024-03-26T09:14:05.642Z,23.31
2024-03-26T09:15:05.658Z,23.31
2024-03-26T09:16:05.664Z,23.31
2024-03-26T09:17:05.692Z,23.32
2024-03-26T09:18:05.835Z,23.32
2024-03-26T09:19:05.733Z,23.34
2024-03-26T09:20:05.724Z,23.37
2024-03-26T09:21:05.703Z,23.37
2024-03-26T09:22:05.700Z,23.38
2024-03-26T09:23:05.702Z,23.40
2024-03-26T09:24:06.461Z,23.41
2024-03-26T09:25:05.719Z,23.41
2024-03-26T09:26:05.735Z,23.43
2024-03-26T09:27:05.728Z,23.41
2024-03-26T09:28:05.727Z,23.43
2024-03-26T09:29:05.739Z,23.44
2024-03-26T09:30:05.763Z,23.47
2024-03-26T09:31:07.576Z,23.49
2024-03-26T09:32:05.748Z,23.48
2024-03-26T09:33:05.747Z,23.35
2024-03-26T09:34:05.766Z,22.69
2024-03-26T09:35:05.797Z,22.33
2024-03-26T09:36:05.791Z,22.22
2024-03-26T09:37:05.815Z,22.05
2024-03-26T09:38:05.846Z,21.96
2024-03-26T09:39:08.362Z,22.02
2024-03-26T09:40:06.160Z,22.10
2024-03-26T09:41:06.046Z,22.21
2024-03-26T09:42:05.923Z,22.31
2024-03-26T09:43:05.959Z,22.43
2024-03-26T09:44:05.948Z,22.54
2024-03-26T09:45:06.986Z,22.63
2024-03-26T09:46:05.973Z,22.73
2024-03-26T09:47:05.988Z,22.81
2024-03-26T09:48:05.990Z,22.88
2024-03-26T09:49:05.999Z,22.96
2024-03-26T09:50:06.024Z,23.02
2024-03-26T09:51:06.026Z,23.07
2024-03-26T09:52:06.044Z,23.12
2024-03-26T09:53:06.030Z,23.16
2024-03-26T09:54:06.035Z,23.20
2024-03-26T09:55:06.062Z,23.24
2024-03-26T09:56:06.047Z,23.28
2024-03-26T09:57:06.056Z,23.31
2024-03-26T09:58:06.050Z,23.33
2024-03-26T09:59:06.033Z,23.37
2024-03-26T10:00:06.028Z,23.39
2024-03-26T10:01:06.047Z,23.41
2024-03-26T10:02:06.049Z,23.44
2024-03-26T10:03:06.051Z,23.47
2024-03-26T10:04:06.056Z,23.51
2024-03-26T10:05:06.057Z,23.51
2024-03-26T10:06:06.060Z,23.51
2024-03-26T10:07:06.065Z,23.54
2024-03-26T10:08:06.085Z,23.57
2024-03-26T10:09:06.092Z,23.60
2024-03-26T10:10:06.064Z,23.63
2024-03-26T10:11:06.087Z,23.64
2024-03-26T10:12:06.090Z,23.65
2024-03-26T10:13:06.052Z,23.64
2024-03-26T10:14:06.057Z,23.64
2024-03-26T10:15:06.071Z,23.62
2024-03-26T10:16:06.083Z,23.61
2024-03-26T10:17:06.094Z,23.63
2024-03-26T10:18:06.075Z,23.59
2024-03-26T10:19:06.088Z,23.50
2024-03-26T10:20:06.109Z,23.03
2024-03-26T10:21:06.124Z,22.70
2024-03-26T10:22:06.148Z,22.63
2024-03-26T10:23:06.146Z,22.66
2024-03-26T10:24:06.189Z,22.72
2024-03-26T10:25:06.177Z,22.75
2024-03-26T10:26:06.184Z,22.75
2024-03-26T10:27:06.209Z,22.73
2024-03-26T10:28:06.205Z,22.75
2024-03-26T10:29:06.259Z,22.85
2024-03-26T10:30:06.348Z,22.90
2024-03-26T10:31:06.371Z,22.86
2024-03-26T10:32:06.436Z,22.87
2024-03-26T10:33:06.503Z,22.93
2024-03-26T10:34:06.535Z,22.98
2024-03-26T10:35:06.584Z,23.04
2024-03-26T10:36:06.639Z,23.09
2024-03-26T10:37:06.684Z,23.16
2024-03-26T10:38:13.125Z,23.20
2024-03-26T10:39:07.763Z,23.25
2024-03-26T10:40:06.732Z,23.32
2024-03-26T10:41:06.744Z,23.34
2024-03-26T10:42:06.750Z,23.37
2024-03-26T10:43:06.744Z,23.44
2024-03-26T10:44:06.753Z,23.48
2024-03-26T10:45:06.767Z,23.52
2024-03-26T10:46:08.332Z,23.56
2024-03-26T10:47:06.778Z,23.59
2024-03-26T10:48:06.790Z,23.62
2024-03-26T10:49:06.800Z,23.64
2024-03-26T10:50:06.785Z,23.66
2024-03-26T10:51:06.802Z,23.68
2024-03-26T10:52:06.799Z,23.71
2024-03-26T10:53:06.789Z,23.73
2024-03-26T10:54:06.794Z,23.76
2024-03-26T10:55:06.805Z,23.79
2024-03-26T10:56:06.826Z,23.81
2024-03-26T10:57:06.837Z,23.82
2024-03-26T10:58:06.812Z,23.85
2024-03-26T10:59:06.879Z,23.87
2024-03-26T11:00:08.421Z,23.87
2024-03-26T11:01:06.987Z,23.89
2024-03-26T11:02:07.024Z,23.90
2024-03-26T11:03:07.040Z,23.92
2024-03-26T11:04:07.056Z,23.91
2024-03-26T11:05:07.066Z,23.93
2024-03-26T11:06:07.111Z,23.92
2024-03-26T11:07:07.131Z,23.93
2024-03-26T11:08:10.076Z,23.95
2024-03-26T11:09:07.169Z,23.98
2024-03-26T11:10:07.175Z,23.98
2024-03-26T11:11:07.172Z,23.99
2024-03-26T11:12:07.188Z,23.99
2024-03-26T11:13:07.156Z,23.98
2024-03-26T11:14:07.166Z,23.98
2024-03-26T11:15:07.170Z,23.99
2024-03-26T11:16:10.487Z,23.99
2024-03-26T11:17:07.299Z,23.97
2024-03-26T11:18:07.181Z,23.96
2024-03-26T11:19:07.151Z,23.99
2024-03-26T11:20:07.164Z,23.99
2024-03-26T11:21:07.172Z,24.00
2024-03-26T11:22:07.175Z,23.98
2024-03-26T11:23:07.163Z,23.97
2024-03-26T11:24:07.167Z,23.95
2024-03-26T11:25:07.143Z,23.96
2024-03-26T11:26:07.153Z,23.96
2024-03-26T11:27:09.361Z,23.97
2024-03-26T11:28:07.224Z,23.98
2024-03-26T11:29:07.265Z,23.99
2024-03-26T11:30:07.353Z,24.00
2024-03-26T11:31:07.376Z,24.01
2024-03-26T11:32:07.436Z,24.02
2024-03-26T11:33:07.502Z,24.00
2024-03-26T11:34:07.484Z,24.01
2024-03-26T11:35:07.532Z,24.01
2024-03-26T11:36:07.589Z,24.00
2024-03-26T11:37:07.643Z,24.02
2024-03-26T11:38:07.643Z,24.04
2024-03-26T11:39:07.704Z,24.04
2024-03-26T11:40:07.755Z,24.03
2024-03-26T11:41:08.077Z,24.02
2024-03-26T11:42:07.722Z,24.01
2024-03-26T11:43:07.763Z,24.00
2024-03-26T11:44:07.819Z,24.01
2024-03-26T11:45:07.858Z,24.00
2024-03-26T11:46:07.875Z,23.99
2024-03-26T11:47:07.911Z,23.99
2024-03-26T11:48:07.987Z,23.99
2024-03-26T11:49:08.063Z,24.00
2024-03-26T11:50:08.107Z,23.99
2024-03-26T11:51:08.164Z,23.99
2024-03-26T11:52:08.218Z,23.98
2024-03-26T11:53:08.246Z,23.98
2024-03-26T11:54:08.343Z,23.98
2024-03-26T11:55:08.340Z,23.98
2024-03-26T11:56:08.366Z,23.98
2024-03-26T11:57:08.433Z,23.97
2024-03-26T11:58:08.516Z,23.96
2024-03-26T11:59:08.510Z,23.95
2024-03-26T12:00:08.598Z,23.93
2024-03-26T12:01:08.598Z,23.94
2024-03-26T12:02:08.671Z,23.93
2024-03-26T12:03:10.032Z,23.93
2024-03-26T12:04:08.740Z,23.92
2024-03-26T12:05:08.807Z,23.92
2024-03-26T12:06:08.858Z,23.91
2024-03-26T12:07:08.882Z,23.90
2024-03-26T12:08:08.956Z,23.89
2024-03-26T12:09:09.008Z,23.89
2024-03-26T12:10:09.051Z,23.89
2024-03-26T12:11:09.100Z,23.89
2024-03-26T12:12:09.151Z,23.88
2024-03-26T12:13:09.174Z,23.88
2024-03-26T12:14:09.209Z,23.89
2024-03-26T12:15:09.287Z,23.89
2024-03-26T12:16:09.322Z,23.91
2024-03-26T12:17:09.340Z,23.92
2024-03-26T12:18:09.387Z,23.93
2024-03-26T12:19:09.412Z,23.92
2024-03-26T12:20:09.468Z,23.91
2024-03-26T12:21:09.518Z,23.89
2024-03-26T12:22:09.553Z,23.88
2024-03-26T12:23:09.591Z,23.88
2024-03-26T12:24:09.646Z,23.86
2024-03-26T12:25:09.670Z,23.86
2024-03-26T12:26:09.724Z,23.86
2024-03-26T12:27:09.767Z,23.86
2024-03-26T12:28:09.799Z,23.86
2024-03-26T12:29:09.809Z,23.87
2024-03-26T12:30:09.839Z,23.87
2024-03-26T12:31:09.842Z,23.86
2024-03-26T12:32:09.846Z,23.86
2024-03-26T12:33:09.882Z,23.86
2024-03-26T12:34:09.888Z,23.86
2024-03-26T12:35:09.897Z,23.85
2024-03-26T12:36:09.954Z,23.84
2024-03-26T12:37:09.925Z,23.85
2024-03-26T12:38:09.954Z,23.84
2024-03-26T12:39:09.975Z,23.83
2024-03-26T12:40:09.997Z,23.83
2024-03-26T12:41:09.970Z,23.83
2024-03-26T12:42:10.014Z,23.83
2024-03-26T12:43:10.054Z,23.83
2024-03-26T12:44:10.086Z,23.84
2024-03-26T12:45:10.087Z,23.83
2024-03-26T12:47:10.131Z,23.82
2024-03-26T12:48:10.187Z,23.81
2024-03-26T12:49:10.168Z,23.81
2024-03-26T12:50:10.186Z,23.81
2024-03-26T12:51:10.225Z,23.82
2024-03-26T12:52:10.218Z,23.81
2024-03-26T12:53:10.251Z,23.82
2024-03-26T12:54:10.286Z,23.82
2024-03-26T12:56:10.319Z,23.80
2024-03-26T12:57:10.364Z,23.78